This is the latest recevied weather packets stored in our database for station/object KC5AV. If no packets are shown the sender has not sent any weather packets the latest 10 day(s).
| Time | Temp. | Humidity | Pressure | Rain* | Wind** | Luminosity | Snow |
|---|---|---|---|---|---|---|---|
| 1777579437 | 16.67° C | 90% | 1015.6 hPa | 0 mm | - | 153 W/m² | - |
| 1777579134 | 16.11° C | 90% | 1015.1 hPa | 0 mm | - | 147 W/m² | - |
| 1777578832 | 16.67° C | 91% | 1015 hPa | 0 mm | - | 174 W/m² | - |
| 1777578529 | 16.11° C | 92% | 1014.9 hPa | 0 mm | - | 208 W/m² | - |
| 1777578223 | 16.67° C | 93% | 1015.3 hPa | 0 mm | - | 192 W/m² | - |
| 1777577919 | 16.67° C | 93% | 1014.9 hPa | 0.51 mm | - | 193 W/m² | - |
| 1777577615 | 16.11° C | 93% | 1015.2 hPa | 0.51 mm | - | 208 W/m² | - |
| 1777577313 | 16.11° C | 93% | 1015.2 hPa | 0 mm | - | 205 W/m² | - |
| 1777577009 | 16.11° C | 93% | 1015 hPa | 1.78 mm | - | 182 W/m² | - |
| 1777576706 | 16.11° C | 92% | 1015.1 hPa | 6.1 mm | - | 180 W/m² | - |
| 1777576405 | 16.11° C | 91% | 1015.6 hPa | 6.1 mm | - | 170 W/m² | - |
| 1777576101 | 16.11° C | 90% | 1016.3 hPa | 2.29 mm | - | 99 W/m² | - |
| 1777575796 | 16.67° C | 88% | 1016.8 hPa | 1.27 mm | - | 61 W/m² | - |
| 1777575488 | 16.67° C | 85% | 1016.9 hPa | 0.51 mm | - | 28 W/m² | - |
| 1777575184 | 16.67° C | 85% | 1016.6 hPa | 0 mm | - | 53 W/m² | - |
| 1777574880 | 16.67° C | 85% | 1016.2 hPa | 0 mm | - | 61 W/m² | - |
| 1777574577 | 16.67° C | 85% | 1015.8 hPa | 0 mm | - | 126 W/m² | - |
| 1777574273 | 17.22° C | 84% | 1016.1 hPa | 0 mm | - | 39 W/m² | - |
| 1777573968 | 17.22° C | 84% | 1015.8 hPa | 0 mm | - | 44 W/m² | - |
| 1777573663 | 17.22° C | 85% | 1015.7 hPa | 0 mm | - | 101 W/m² | - |
| 1777573360 | 17.22° C | 84% | 1015.4 hPa | 0 mm | - | 146 W/m² | - |
| 1777573055 | 17.22° C | 85% | 1015.7 hPa | 0 mm | - | 69 W/m² | - |
| 1777572752 | 17.22° C | 84% | 1015.6 hPa | 0 mm | - | 100 W/m² | - |
| 1777571232 | 17.78° C | 84% | 1015.7 hPa | 0 mm | - | 130 W/m² | - |
| 1777570928 | 17.78° C | 84% | 1015.7 hPa | 0 mm | - | 130 W/m² | - |
* Rain latest hour (hover to see other rain measurements)
** Current wind speed in m/s (hover to see current wind gust speed)